PWSweather.com
Personal Weather Stations
Station Observations
NYERIN
South Erin, Erin, NY 14838-9545

South ErinErin, NY 14838-9545

Lat: 42.150605, Lon: -76.654038

Elevation: 1663

Station Type: Davis VP Pro II

http://southerin-ny.org/wx.php

Latest ConditionsUpdated 8:12:00 PM EDT Friday, Apr 24, 2015
Currently Today's Max Today's Min Today's Average
Temperature 34.9°F1.6°C 38.9°F3.8°C 27.5°F-2.5°C 32.2°F0.1°C
Dew Point 22.4°F-5.3°C 25.7°F-3.5°C 18.4°F-7.6°C 21.6°F-5.8°C
Winds 2.5 mph NW4.0 kmh NW 10.4 mph N16.7 kmh N - 5.4 mph 8.7 kmh
Wind Gusts 7.0 mph11.3 kmh 20.0 mph32.2 kmh - -
Humidity 60% 85% 52% 65%
Pressure 29.99 in1015.6 mb 29.99 in1015.6 mb 29.91 in1012.9 mb -
Hour Temp Dew Point Humidity Winds Wind Gusts Pressure Precip Precip Rate Daily Precip Total
08:12 PM 34.9°F1.6°C 22.4°F-5.3°C 60% 2.5 mph NW4.0 kmh NW 7.0 mph11.3 kmh 29.99 in1015.6 mb - 0.00 in0.0 mm 0.00 in0.0 mm
08:02 PM 35.0°F1.7°C 22.5°F-5.3°C 60% 4.2 mph NNW6.8 kmh NNW 6.0 mph9.7 kmh 29.98 in1015.2 mb - 0.00 in0.0 mm 0.00 in0.0 mm
07:52 PM 35.0°F1.7°C 22.5°F-5.3°C 60% 1.6 mph NNW2.6 kmh NNW 8.0 mph12.9 kmh 29.98 in1015.2 mb - 0.00 in0.0 mm 0.00 in0.0 mm
07:42 PM 35.2°F1.8°C 22.3°F-5.4°C 59% 5.4 mph NNW8.7 kmh NNW 7.0 mph11.3 kmh 29.97 in1014.9 mb - 0.00 in0.0 mm 0.00 in0.0 mm
07:32 PM 35.3°F1.8°C 22.4°F-5.3°C 59% 4.1 mph NNW6.6 kmh NNW 7.0 mph11.3 kmh 29.97 in1014.9 mb - 0.00 in0.0 mm 0.00 in0.0 mm
07:22 PM 35.3°F1.8°C 22.0°F-5.6°C 58% 6.2 mph NNW10.0 kmh NNW 10.0 mph16.1 kmh 29.97 in1014.9 mb - 0.00 in0.0 mm 0.00 in0.0 mm
07:12 PM 35.5°F1.9°C 21.8°F-5.7°C 57% 6.2 mph N10.0 kmh N 8.0 mph12.9 kmh 29.97 in1014.9 mb - 0.00 in0.0 mm 0.00 in0.0 mm
07:02 PM 35.6°F2.0°C 22.3°F-5.4°C 58% 5.0 mph NNW8.0 kmh NNW 10.0 mph16.1 kmh 29.97 in1014.9 mb - 0.00 in0.0 mm 0.00 in0.0 mm
06:52 PM 35.6°F2.0°C 22.3°F-5.4°C 58% 6.7 mph NW10.8 kmh NW 11.0 mph17.7 kmh 29.97 in1014.9 mb - 0.00 in0.0 mm 0.00 in0.0 mm
06:42 PM 35.8°F2.1°C 22.0°F-5.6°C 57% 5.5 mph N8.9 kmh N 14.0 mph22.5 kmh 29.97 in1014.9 mb - 0.00 in0.0 mm 0.00 in0.0 mm
06:32 PM 35.8°F2.1°C 21.6°F-5.8°C 56% 6.4 mph N10.3 kmh N 8.0 mph12.9 kmh 29.97 in1014.9 mb - 0.00 in0.0 mm 0.00 in0.0 mm
06:22 PM 35.9°F2.2°C 22.5°F-5.3°C 58% 2.6 mph NW4.2 kmh NW 7.0 mph11.3 kmh 29.97 in1014.9 mb - 0.00 in0.0 mm 0.00 in0.0 mm
06:12 PM 35.9°F2.2°C 22.5°F-5.3°C 58% 4.9 mph NNW7.9 kmh NNW 14.0 mph22.5 kmh 29.97 in1014.9 mb - 0.00 in0.0 mm 0.00 in0.0 mm
06:02 PM 35.9°F2.2°C 22.1°F-5.5°C 57% 8.8 mph NW14.2 kmh NW 11.0 mph17.7 kmh 29.97 in1014.9 mb - 0.00 in0.0 mm 0.00 in0.0 mm
05:52 PM 36.0°F2.2°C 22.6°F-5.2°C 58% 6.0 mph NW9.7 kmh NW 13.0 mph20.9 kmh 29.97 in1014.9 mb - 0.00 in0.0 mm 0.00 in0.0 mm
05:42 PM 36.0°F2.2°C 23.0°F-5.0°C 59% 8.5 mph N13.7 kmh N 14.0 mph22.5 kmh 29.97 in1014.9 mb - 0.00 in0.0 mm 0.00 in0.0 mm
05:32 PM 35.9°F2.2°C 22.5°F-5.3°C 58% 5.6 mph NNW9.0 kmh NNW 7.0 mph11.3 kmh 29.96 in1014.6 mb - 0.00 in0.0 mm 0.00 in0.0 mm
05:22 PM 36.3°F2.4°C 22.1°F-5.5°C 56% 4.8 mph N7.7 kmh N 8.0 mph12.9 kmh 29.96 in1014.6 mb - 0.00 in0.0 mm 0.00 in0.0 mm
05:12 PM 36.5°F2.5°C 21.8°F-5.7°C 55% 5.8 mph NW9.3 kmh NW 8.0 mph12.9 kmh 29.96 in1014.6 mb - 0.00 in0.0 mm 0.00 in0.0 mm
05:02 PM 36.8°F2.7°C 22.1°F-5.5°C 55% 4.1 mph NNW6.6 kmh NNW 7.0 mph11.3 kmh 29.96 in1014.6 mb - 0.00 in0.0 mm 0.00 in0.0 mm
04:52 PM 36.8°F2.7°C 22.1°F-5.5°C 55% 5.7 mph N9.2 kmh N 14.0 mph22.5 kmh 29.95 in1014.2 mb - 0.00 in0.0 mm 0.00 in0.0 mm
04:42 PM 37.0°F2.8°C 22.3°F-5.4°C 55% 5.9 mph NNW9.5 kmh NNW 9.0 mph14.5 kmh 29.95 in1014.2 mb - 0.00 in0.0 mm 0.00 in0.0 mm
04:32 PM 37.3°F2.9°C 22.1°F-5.5°C 54% 9.8 mph NW15.8 kmh NW 19.0 mph30.6 kmh 29.95 in1014.2 mb - 0.00 in0.0 mm 0.00 in0.0 mm
04:22 PM 36.9°F2.7°C 22.3°F-5.4°C 55% 7.0 mph N11.3 kmh N 15.0 mph24.1 kmh 29.95 in1014.2 mb - 0.00 in0.0 mm 0.00 in0.0 mm
04:12 PM 37.5°F3.1°C 21.5°F-5.8°C 52% 6.4 mph N10.3 kmh N 14.0 mph22.5 kmh 29.95 in1014.2 mb - 0.00 in0.0 mm 0.00 in0.0 mm
04:02 PM 37.1°F2.8°C 21.6°F-5.8°C 53% 8.7 mph N14.0 kmh N 11.0 mph17.7 kmh 29.95 in1014.2 mb - 0.00 in0.0 mm 0.00 in0.0 mm
03:52 PM 37.0°F2.8°C 21.9°F-5.6°C 54% 6.5 mph NW10.5 kmh NW 10.0 mph16.1 kmh 29.95 in1014.2 mb - 0.00 in0.0 mm 0.00 in0.0 mm
03:42 PM 37.2°F2.9°C 21.2°F-6.0°C 52% 5.2 mph N8.4 kmh N 13.0 mph20.9 kmh 29.95 in1014.2 mb - 0.00 in0.0 mm 0.00 in0.0 mm
03:32 PM 37.9°F3.3°C 23.2°F-4.9°C 55% 7.4 mph WNW11.9 kmh WNW 11.0 mph17.7 kmh 29.94 in1013.9 mb - 0.00 in0.0 mm 0.00 in0.0 mm
03:22 PM 37.1°F2.8°C 21.5°F-5.8°C 53% 4.6 mph NW7.4 kmh NW 3.0 mph4.8 kmh 29.94 in1013.9 mb - 0.00 in0.0 mm 0.00 in0.0 mm
03:12 PM 37.0°F2.8°C 21.9°F-5.6°C 54% 10.0 mph NW16.1 kmh NW 18.0 mph29.0 kmh 29.94 in1013.9 mb - 0.00 in0.0 mm 0.00 in0.0 mm
03:02 PM 36.8°F2.7°C 21.7°F-5.7°C 54% 8.4 mph NW13.5 kmh NW 16.0 mph25.7 kmh 29.94 in1013.9 mb - 0.00 in0.0 mm 0.00 in0.0 mm
02:52 PM 37.9°F3.3°C 22.3°F-5.4°C 53% 8.6 mph NNW13.8 kmh NNW 11.0 mph17.7 kmh 29.94 in1013.9 mb - 0.00 in0.0 mm 0.00 in0.0 mm
02:42 PM 37.6°F3.1°C 24.1°F-4.4°C 58% 8.4 mph N13.5 kmh N 13.0 mph20.9 kmh 29.94 in1013.9 mb - 0.00 in0.0 mm 0.00 in0.0 mm
02:32 PM 38.9°F3.8°C 24.1°F-4.4°C 55% 7.4 mph NNW11.9 kmh NNW 12.0 mph19.3 kmh 29.95 in1014.2 mb - 0.00 in0.0 mm 0.00 in0.0 mm
02:22 PM 37.4°F3.0°C 24.0°F-4.4°C 58% 5.6 mph NW9.0 kmh NW 14.0 mph22.5 kmh 29.95 in1014.2 mb - 0.00 in0.0 mm 0.00 in0.0 mm
02:12 PM 36.7°F2.6°C 22.4°F-5.3°C 56% 7.9 mph WNW12.7 kmh WNW 11.0 mph17.7 kmh 29.95 in1014.2 mb - 0.00 in0.0 mm 0.00 in0.0 mm
02:02 PM 37.1°F2.8°C 25.7°F-3.5°C 63% 2.5 mph NW4.0 kmh NW 10.0 mph16.1 kmh 29.95 in1014.2 mb - 0.00 in0.0 mm 0.00 in0.0 mm
01:52 PM 35.5°F1.9°C 21.3°F-5.9°C 56% 5.1 mph NNW8.2 kmh NNW 10.0 mph16.1 kmh 29.95 in1014.2 mb - 0.00 in0.0 mm 0.00 in0.0 mm
01:42 PM 34.6°F1.4°C 21.0°F-6.1°C 57% 6.3 mph N10.1 kmh N 15.0 mph24.1 kmh 29.95 in1014.2 mb - 0.00 in0.0 mm 0.00 in0.0 mm
01:32 PM 34.9°F1.6°C 19.9°F-6.7°C 54% 8.0 mph NW12.9 kmh NW 20.0 mph32.2 kmh 29.95 in1014.2 mb - 0.00 in0.0 mm 0.00 in0.0 mm
01:22 PM 35.6°F2.0°C 21.0°F-6.1°C 55% 7.2 mph NW11.6 kmh NW 18.0 mph29.0 kmh 29.95 in1014.2 mb - 0.00 in0.0 mm 0.00 in0.0 mm
01:12 PM 37.5°F3.1°C 22.4°F-5.3°C 54% 5.5 mph NNW8.9 kmh NNW 13.0 mph20.9 kmh 29.95 in1014.2 mb - 0.00 in0.0 mm 0.00 in0.0 mm
01:02 PM 35.8°F2.1°C 21.6°F-5.8°C 56% 8.7 mph NNW14.0 kmh NNW 14.0 mph22.5 kmh 29.95 in1014.2 mb - 0.00 in0.0 mm 0.00 in0.0 mm
12:52 PM 35.6°F2.0°C 21.0°F-6.1°C 55% 6.4 mph NNW10.3 kmh NNW 12.0 mph19.3 kmh 29.95 in1014.2 mb - 0.00 in0.0 mm 0.00 in0.0 mm
12:42 PM 34.7°F1.5°C 21.4°F-5.9°C 58% 7.4 mph NNW11.9 kmh NNW 11.0 mph17.7 kmh 29.95 in1014.2 mb - 0.00 in0.0 mm 0.00 in0.0 mm
12:32 PM 34.4°F1.3°C 21.1°F-6.1°C 58% 4.4 mph N7.1 kmh N 10.0 mph16.1 kmh 29.95 in1014.2 mb - 0.00 in0.0 mm 0.00 in0.0 mm
12:22 PM 34.0°F1.1°C 20.8°F-6.2°C 58% 5.8 mph N9.3 kmh N 10.0 mph16.1 kmh 29.95 in1014.2 mb - 0.00 in0.0 mm 0.00 in0.0 mm
12:12 PM 33.8°F1.0°C 20.2°F-6.6°C 57% 6.6 mph N10.6 kmh N 12.0 mph19.3 kmh 29.95 in1014.2 mb - 0.00 in0.0 mm 0.00 in0.0 mm
12:02 PM 33.4°F0.8°C 20.2°F-6.6°C 58% 4.6 mph NNW7.4 kmh NNW 9.0 mph14.5 kmh 29.96 in1014.6 mb - 0.00 in0.0 mm 0.00 in0.0 mm
11:52 AM 33.4°F0.8°C 19.8°F-6.8°C 57% 9.1 mph NW14.6 kmh NW 15.0 mph24.1 kmh 29.96 in1014.6 mb - 0.00 in0.0 mm 0.00 in0.0 mm
11:42 AM 33.5°F0.8°C 19.5°F-6.9°C 56% 7.7 mph NW12.4 kmh NW 17.0 mph27.4 kmh 29.96 in1014.6 mb - 0.00 in0.0 mm 0.00 in0.0 mm
11:32 AM 35.4°F1.9°C 20.9°F-6.2°C 55% 10.4 mph N16.7 kmh N 13.0 mph20.9 kmh 29.95 in1014.2 mb - 0.00 in0.0 mm 0.00 in0.0 mm
11:22 AM 36.0°F2.2°C 23.0°F-5.0°C 59% 6.3 mph N10.1 kmh N 13.0 mph20.9 kmh 29.95 in1014.2 mb - 0.00 in0.0 mm 0.00 in0.0 mm
11:12 AM 34.5°F1.4°C 20.0°F-6.7°C 55% 4.6 mph NW7.4 kmh NW 11.0 mph17.7 kmh 29.95 in1014.2 mb - 0.00 in0.0 mm 0.00 in0.0 mm
11:02 AM 34.6°F1.4°C 20.9°F-6.2°C 57% 9.1 mph NW14.6 kmh NW 15.0 mph24.1 kmh 29.95 in1014.2 mb - 0.00 in0.0 mm 0.00 in0.0 mm
10:52 AM 33.5°F0.8°C 20.3°F-6.5°C 58% 8.7 mph NNW14.0 kmh NNW 12.0 mph19.3 kmh 29.96 in1014.6 mb - 0.00 in0.0 mm 0.00 in0.0 mm
10:42 AM 32.7°F0.4°C 20.4°F-6.4°C 60% 4.7 mph NW7.6 kmh NW 6.0 mph9.7 kmh 29.96 in1014.6 mb - 0.00 in0.0 mm 0.00 in0.0 mm
10:32 AM 32.9°F0.5°C 19.7°F-6.8°C 58% 5.2 mph NNW8.4 kmh NNW 15.0 mph24.1 kmh 29.96 in1014.6 mb - 0.00 in0.0 mm 0.00 in0.0 mm
10:22 AM 32.5°F0.3°C 19.3°F-7.1°C 58% 7.7 mph NNW12.4 kmh NNW 17.0 mph27.4 kmh 29.95 in1014.2 mb - 0.00 in0.0 mm 0.00 in0.0 mm
10:12 AM 32.8°F0.4°C 19.2°F-7.1°C 57% 6.9 mph NW11.1 kmh NW 13.0 mph20.9 kmh 29.95 in1014.2 mb - 0.00 in0.0 mm 0.00 in0.0 mm
10:02 AM 33.2°F0.7°C 20.4°F-6.4°C 59% 7.2 mph N11.6 kmh N 14.0 mph22.5 kmh 29.95 in1014.2 mb - 0.00 in0.0 mm 0.00 in0.0 mm
09:52 AM 32.1°F0.1°C 18.6°F-7.4°C 57% 8.5 mph NW13.7 kmh NW 15.0 mph24.1 kmh 29.95 in1014.2 mb - 0.00 in0.0 mm 0.00 in0.0 mm
09:42 AM 31.5°F-0.3°C 18.4°F-7.6°C 58% 5.0 mph NW8.0 kmh NW 12.0 mph19.3 kmh 29.95 in1014.2 mb - 0.00 in0.0 mm 0.00 in0.0 mm
09:32 AM 32.2°F0.1°C 19.5°F-6.9°C 59% 7.4 mph NNW11.9 kmh NNW 9.0 mph14.5 kmh 29.95 in1014.2 mb - 0.00 in0.0 mm 0.00 in0.0 mm
09:22 AM 31.3°F-0.4°C 20.2°F-6.6°C 63% 4.0 mph NW6.4 kmh NW 7.0 mph11.3 kmh 29.95 in1014.2 mb - 0.00 in0.0 mm 0.00 in0.0 mm
09:12 AM 31.5°F-0.3°C 20.0°F-6.7°C 62% 3.1 mph NW5.0 kmh NW 6.0 mph9.7 kmh 29.95 in1014.2 mb - 0.00 in0.0 mm 0.00 in0.0 mm
09:02 AM 30.6°F-0.8°C 19.5°F-6.9°C 63% 7.4 mph NNW11.9 kmh NNW 11.0 mph17.7 kmh 29.95 in1014.2 mb - 0.00 in0.0 mm 0.00 in0.0 mm
08:52 AM 30.1°F-1.1°C 19.4°F-7.0°C 64% 1.4 mph WNW2.3 kmh WNW 5.0 mph8.0 kmh 29.95 in1014.2 mb - 0.00 in0.0 mm 0.00 in0.0 mm
08:42 AM 30.4°F-0.9°C 18.9°F-7.3°C 62% 8.7 mph NW14.0 kmh NW 15.0 mph24.1 kmh 29.95 in1014.2 mb - 0.00 in0.0 mm 0.00 in0.0 mm
08:32 AM 30.6°F-0.8°C 19.5°F-6.9°C 63% 7.6 mph NW12.2 kmh NW 16.0 mph25.7 kmh 29.95 in1014.2 mb - 0.00 in0.0 mm 0.00 in0.0 mm
08:22 AM 30.3°F-0.9°C 19.9°F-6.7°C 65% 5.5 mph NW8.9 kmh NW 10.0 mph16.1 kmh 29.95 in1014.2 mb - 0.00 in0.0 mm 0.00 in0.0 mm
08:12 AM 30.1°F-1.1°C 20.1°F-6.6°C 66% 7.6 mph NNW12.2 kmh NNW 12.0 mph19.3 kmh 29.95 in1014.2 mb - 0.00 in0.0 mm 0.00 in0.0 mm
08:02 AM 29.4°F-1.4°C 20.1°F-6.6°C 68% 8.2 mph NW13.2 kmh NW 16.0 mph25.7 kmh 29.95 in1014.2 mb - 0.00 in0.0 mm 0.00 in0.0 mm
07:52 AM 28.9°F-1.7°C 21.0°F-6.1°C 72% 2.2 mph N3.5 kmh N 6.0 mph9.7 kmh 29.95 in1014.2 mb - 0.00 in0.0 mm 0.00 in0.0 mm
07:42 AM 28.1°F-2.2°C 20.2°F-6.6°C 72% 1.7 mph NW2.7 kmh NW 4.0 mph6.4 kmh 29.95 in1014.2 mb - 0.00 in0.0 mm 0.00 in0.0 mm
07:32 AM 27.8°F-2.3°C 19.9°F-6.7°C 72% 2.2 mph N3.5 kmh N 8.0 mph12.9 kmh 29.95 in1014.2 mb - 0.00 in0.0 mm 0.00 in0.0 mm
07:22 AM 27.8°F-2.3°C 19.9°F-6.7°C 72% 3.4 mph NW5.5 kmh NW 7.0 mph11.3 kmh 29.95 in1014.2 mb - 0.00 in0.0 mm 0.00 in0.0 mm
07:12 AM 27.9°F-2.3°C 20.0°F-6.7°C 72% 4.7 mph N7.6 kmh N 9.0 mph14.5 kmh 29.95 in1014.2 mb - 0.00 in0.0 mm 0.00 in0.0 mm
07:02 AM 27.9°F-2.3°C 20.4°F-6.4°C 73% 3.2 mph NW5.1 kmh NW 6.0 mph9.7 kmh 29.94 in1013.9 mb - 0.00 in0.0 mm 0.00 in0.0 mm
06:52 AM 27.9°F-2.3°C 20.7°F-6.3°C 74% 5.0 mph NW8.0 kmh NW 13.0 mph20.9 kmh 29.94 in1013.9 mb - 0.00 in0.0 mm 0.00 in0.0 mm
06:42 AM 27.9°F-2.3°C 21.3°F-5.9°C 76% 6.3 mph NNW10.1 kmh NNW 7.0 mph11.3 kmh 29.95 in1014.2 mb - 0.00 in0.0 mm 0.00 in0.0 mm
06:32 AM 27.8°F-2.3°C 21.8°F-5.7°C 78% 4.9 mph NW7.9 kmh NW 11.0 mph17.7 kmh 29.94 in1013.9 mb - 0.00 in0.0 mm 0.00 in0.0 mm
06:22 AM 27.6°F-2.4°C 22.2°F-5.4°C 80% 4.9 mph NW7.9 kmh NW 10.0 mph16.1 kmh 29.94 in1013.9 mb - 0.00 in0.0 mm 0.00 in0.0 mm
06:12 AM 27.5°F-2.5°C 23.0°F-5.0°C 83% 9.2 mph WNW14.8 kmh WNW 11.0 mph17.7 kmh 29.93 in1013.5 mb - 0.00 in0.0 mm 0.00 in0.0 mm
06:02 AM 27.5°F-2.5°C 23.6°F-4.7°C 85% 6.0 mph NNW9.7 kmh NNW 16.0 mph25.7 kmh 29.93 in1013.5 mb - 0.00 in0.0 mm 0.00 in0.0 mm
05:52 AM 27.6°F-2.4°C 23.7°F-4.6°C 85% 4.4 mph W7.1 kmh W 12.0 mph19.3 kmh 29.93 in1013.5 mb - 0.00 in0.0 mm 0.00 in0.0 mm
05:42 AM 27.5°F-2.5°C 23.3°F-4.8°C 84% 4.8 mph SW7.7 kmh SW 10.0 mph16.1 kmh 29.93 in1013.5 mb - 0.00 in0.0 mm 0.00 in0.0 mm
05:32 AM 27.5°F-2.5°C 23.3°F-4.8°C 84% 3.6 mph W5.8 kmh W 8.0 mph12.9 kmh 29.93 in1013.5 mb - 0.00 in0.0 mm 0.00 in0.0 mm
05:22 AM 27.5°F-2.5°C 23.3°F-4.8°C 84% 3.4 mph NNW5.5 kmh NNW 7.0 mph11.3 kmh 29.93 in1013.5 mb - 0.00 in0.0 mm 0.00 in0.0 mm
05:12 AM 27.5°F-2.5°C 23.3°F-4.8°C 84% 2.7 mph NW4.3 kmh NW 4.0 mph6.4 kmh 29.93 in1013.5 mb - 0.00 in0.0 mm 0.00 in0.0 mm
05:02 AM 27.6°F-2.4°C 23.1°F-4.9°C 83% 1.2 mph N1.9 kmh N 5.0 mph8.0 kmh 29.93 in1013.5 mb - 0.00 in0.0 mm 0.00 in0.0 mm
04:52 AM 27.8°F-2.3°C 23.0°F-5.0°C 82% 4.0 mph NNW6.4 kmh NNW 7.0 mph11.3 kmh 29.93 in1013.5 mb - 0.00 in0.0 mm 0.00 in0.0 mm
04:42 AM 27.9°F-2.3°C 22.5°F-5.3°C 80% 0.4 mph NW0.6 kmh NW 1.0 mph1.6 kmh 29.93 in1013.5 mb - 0.00 in0.0 mm 0.00 in0.0 mm
04:32 AM 28.1°F-2.2°C 22.1°F-5.5°C 78% 2.8 mph NW4.5 kmh NW 6.0 mph9.7 kmh 29.93 in1013.5 mb - 0.00 in0.0 mm 0.00 in0.0 mm
04:22 AM 28.2°F-2.1°C 21.3°F-5.9°C 75% 1.8 mph NW2.9 kmh NW 2.0 mph3.2 kmh 29.93 in1013.5 mb - 0.00 in0.0 mm 0.00 in0.0 mm
04:12 AM 28.2°F-2.1°C 21.3°F-5.9°C 75% 0.7 mph WNW1.1 kmh WNW 4.0 mph6.4 kmh 29.93 in1013.5 mb - 0.00 in0.0 mm 0.00 in0.0 mm
04:02 AM 28.2°F-2.1°C 21.3°F-5.9°C 75% 4.1 mph NNW6.6 kmh NNW 5.0 mph8.0 kmh 29.93 in1013.5 mb - 0.00 in0.0 mm 0.00 in0.0 mm
03:52 AM 28.2°F-2.1°C 21.3°F-5.9°C 75% 4.8 mph NW7.7 kmh NW 7.0 mph11.3 kmh 29.93 in1013.5 mb - 0.00 in0.0 mm 0.00 in0.0 mm
03:42 AM 28.2°F-2.1°C 21.3°F-5.9°C 75% 6.1 mph NW9.8 kmh NW 10.0 mph16.1 kmh 29.93 in1013.5 mb - 0.00 in0.0 mm 0.00 in0.0 mm
03:32 AM 28.2°F-2.1°C 21.3°F-5.9°C 75% 4.0 mph NW6.4 kmh NW 6.0 mph9.7 kmh 29.93 in1013.5 mb - 0.00 in0.0 mm 0.00 in0.0 mm
03:22 AM 28.2°F-2.1°C 21.6°F-5.8°C 76% 3.0 mph NNW4.8 kmh NNW 8.0 mph12.9 kmh 29.92 in1013.2 mb - 0.00 in0.0 mm 0.00 in0.0 mm
03:12 AM 28.2°F-2.1°C 21.6°F-5.8°C 76% 6.1 mph NW9.8 kmh NW 9.0 mph14.5 kmh 29.92 in1013.2 mb - 0.00 in0.0 mm 0.00 in0.0 mm
03:02 AM 28.2°F-2.1°C 21.6°F-5.8°C 76% 3.0 mph W4.8 kmh W 5.0 mph8.0 kmh 29.92 in1013.2 mb - 0.00 in0.0 mm 0.00 in0.0 mm
02:52 AM 28.2°F-2.1°C 21.6°F-5.8°C 76% 5.0 mph NW8.0 kmh NW 8.0 mph12.9 kmh 29.92 in1013.2 mb - 0.00 in0.0 mm 0.00 in0.0 mm
02:42 AM 28.4°F-2.0°C 21.8°F-5.7°C 76% 4.3 mph NW6.9 kmh NW 7.0 mph11.3 kmh 29.92 in1013.2 mb - 0.00 in0.0 mm 0.00 in0.0 mm
02:32 AM 28.4°F-2.0°C 21.8°F-5.7°C 76% 5.4 mph WNW8.7 kmh WNW 10.0 mph16.1 kmh 29.92 in1013.2 mb - 0.00 in0.0 mm 0.00 in0.0 mm
02:22 AM 28.4°F-2.0°C 22.1°F-5.5°C 77% 6.6 mph NW10.6 kmh NW 12.0 mph19.3 kmh 29.91 in1012.9 mb - 0.00 in0.0 mm 0.00 in0.0 mm
02:12 AM 28.5°F-1.9°C 22.2°F-5.4°C 77% 4.0 mph NW6.4 kmh NW 10.0 mph16.1 kmh 29.91 in1012.9 mb - 0.00 in0.0 mm 0.00 in0.0 mm
02:02 AM 28.5°F-1.9°C 21.9°F-5.6°C 76% 4.1 mph NW6.6 kmh NW 10.0 mph16.1 kmh 29.91 in1012.9 mb - 0.00 in0.0 mm 0.00 in0.0 mm
01:52 AM 28.7°F-1.8°C 22.1°F-5.5°C 76% 5.2 mph NW8.4 kmh NW 15.0 mph24.1 kmh 29.91 in1012.9 mb - 0.00 in0.0 mm 0.00 in0.0 mm
01:42 AM 28.7°F-1.8°C 22.1°F-5.5°C 76% 6.3 mph NNW10.1 kmh NNW 11.0 mph17.7 kmh 29.91 in1012.9 mb - 0.00 in0.0 mm 0.00 in0.0 mm
01:32 AM 28.7°F-1.8°C 22.1°F-5.5°C 76% 4.5 mph WNW7.2 kmh WNW 11.0 mph17.7 kmh 29.91 in1012.9 mb - 0.00 in0.0 mm 0.00 in0.0 mm
01:22 AM 28.7°F-1.8°C 22.1°F-5.5°C 76% 2.7 mph WNW4.3 kmh WNW 6.0 mph9.7 kmh 29.91 in1012.9 mb - 0.00 in0.0 mm 0.00 in0.0 mm
01:12 AM 28.7°F-1.8°C 22.1°F-5.5°C 76% 6.7 mph WSW10.8 kmh WSW 11.0 mph17.7 kmh 29.91 in1012.9 mb - 0.00 in0.0 mm 0.00 in0.0 mm
01:02 AM 28.7°F-1.8°C 22.1°F-5.5°C 76% 3.3 mph NW5.3 kmh NW 8.0 mph12.9 kmh 29.91 in1012.9 mb - 0.00 in0.0 mm 0.00 in0.0 mm
12:52 AM 28.7°F-1.8°C 22.4°F-5.3°C 77% 1.2 mph NW1.9 kmh NW 11.0 mph17.7 kmh 29.91 in1012.9 mb - 0.00 in0.0 mm 0.00 in0.0 mm
12:42 AM 28.7°F-1.8°C 22.4°F-5.3°C 77% 2.3 mph WNW3.7 kmh WNW 6.0 mph9.7 kmh 29.91 in1012.9 mb - 0.00 in0.0 mm 0.00 in0.0 mm
12:32 AM 28.8°F-1.8°C 22.2°F-5.4°C 76% 3.8 mph NW6.1 kmh NW 9.0 mph14.5 kmh 29.91 in1012.9 mb - 0.00 in0.0 mm 0.00 in0.0 mm
12:22 AM 28.8°F-1.8°C 22.2°F-5.4°C 76% 6.2 mph NW10.0 kmh NW 10.0 mph16.1 kmh 29.92 in1013.2 mb - 0.00 in0.0 mm 0.00 in0.0 mm
12:12 AM 28.8°F-1.8°C 22.2°F-5.4°C 76% 3.7 mph NW6.0 kmh NW 11.0 mph17.7 kmh 29.91 in1012.9 mb - 0.00 in0.0 mm 0.00 in0.0 mm
12:02 AM 29.0°F-1.7°C 22.1°F-5.5°C 75% 2.8 mph NW4.5 kmh NW 4.0 mph6.4 kmh 29.91 in1012.9 mb - 0.00 in0.0 mm 0.00 in0.0 mm